createdAt,value
2018-05-26T00:00:05.141Z,10.83
2018-05-26T00:03:11.221Z,10.37
2018-05-26T00:06:17.314Z,10.13
2018-05-26T00:09:23.440Z,13.57
2018-05-26T00:12:30.640Z,11.50
2018-05-26T00:15:37.571Z,11.37
2018-05-26T00:18:43.470Z,11.57
2018-05-26T00:21:49.594Z,12.03
2018-05-26T00:24:55.539Z,11.30
2018-05-26T00:28:01.566Z,11.67
2018-05-26T00:31:07.624Z,11.93
2018-05-26T00:34:13.756Z,12.47
2018-05-26T00:37:19.618Z,13.03
2018-05-26T00:40:25.572Z,13.83
2018-05-26T00:43:32.493Z,13.73
2018-05-26T00:46:38.645Z,12.83
2018-05-26T00:49:44.733Z,12.73
2018-05-26T00:52:51.857Z,13.63
2018-05-26T00:55:58.197Z,12.97
2018-05-26T00:59:04.958Z,14.50
2018-05-26T01:02:10.186Z,14.63
2018-05-26T01:05:16.540Z,15.33
2018-05-26T01:08:22.526Z,15.23
2018-05-26T01:11:28.778Z,14.30
2018-05-26T01:14:35.674Z,13.73
2018-05-26T01:17:41.373Z,14.53
2018-05-26T01:20:47.504Z,14.90
2018-05-26T01:23:55.367Z,16.17
2018-05-26T01:27:01.925Z,16.13
2018-05-26T01:30:08.828Z,15.63
2018-05-26T01:33:14.914Z,15.97
2018-05-26T01:36:21.036Z,14.87
2018-05-26T01:39:27.123Z,16.27
2018-05-26T01:42:33.308Z,17.00
2018-05-26T01:45:39.437Z,17.47
2018-05-26T01:48:45.301Z,18.37
2018-05-26T01:51:51.276Z,16.90
2018-05-26T01:54:58.062Z,17.77
2018-05-26T01:58:04.232Z,17.47
2018-05-26T02:01:10.410Z,17.70
2018-05-26T02:04:16.437Z,20.53
2018-05-26T02:07:22.513Z,19.00
2018-05-26T02:10:29.627Z,17.23
2018-05-26T02:13:35.593Z,18.67
2018-05-26T02:16:41.721Z,17.93
2018-05-26T02:19:47.517Z,17.57
2018-05-26T02:22:53.534Z,19.60
2018-05-26T02:25:59.444Z,19.60
2018-05-26T02:29:05.286Z,13.73
2018-05-26T02:32:11.570Z,14.50
2018-05-26T02:35:17.543Z,15.73
2018-05-26T02:38:23.356Z,14.77
2018-05-26T02:41:29.740Z,18.77
2018-05-26T02:44:35.728Z,17.30
2018-05-26T02:47:41.752Z,17.00
2018-05-26T02:50:47.551Z,18.07
2018-05-26T02:53:58.786Z,16.13
2018-05-26T02:57:05.648Z,15.83
2018-05-26T03:00:11.527Z,17.27
2018-05-26T03:03:17.617Z,20.43
2018-05-26T03:06:29.878Z,19.73
2018-05-26T03:09:42.711Z,22.47
2018-05-26T03:12:54.717Z,21.63
2018-05-26T03:16:06.579Z,21.10
2018-05-26T03:19:12.466Z,22.13
2018-05-26T03:22:18.672Z,20.50
2018-05-26T03:25:24.648Z,22.57
2018-05-26T03:28:31.482Z,17.20
2018-05-26T03:31:37.650Z,21.43
2018-05-26T03:34:44.577Z,21.50
2018-05-26T03:37:51.415Z,19.90
2018-05-26T03:40:57.458Z,20.80
2018-05-26T03:44:03.484Z,21.60
2018-05-26T03:47:10.528Z,20.53
2018-05-26T03:50:17.663Z,19.13
2018-05-26T03:53:24.140Z,19.37
2018-05-26T03:56:42.002Z,19.70
2018-05-26T04:00:13.192Z,18.87
2018-05-26T04:03:19.950Z,21.70
2018-05-26T04:06:26.194Z,22.13
2018-05-26T04:09:39.778Z,18.20
2018-05-26T04:12:45.371Z,16.40
2018-05-26T04:16:04.176Z,16.67
2018-05-26T04:19:11.107Z,14.30
2018-05-26T04:22:17.235Z,15.20
2018-05-26T04:25:23.513Z,16.60
2018-05-26T04:28:29.548Z,13.27
2018-05-26T04:31:36.350Z,13.07
2018-05-26T04:34:42.319Z,15.90
2018-05-26T04:37:49.279Z,16.30
2018-05-26T04:40:57.074Z,15.17
2018-05-26T04:44:04.065Z,16.90
2018-05-26T04:47:10.148Z,16.60
2018-05-26T04:50:18.088Z,16.50
2018-05-26T04:53:27.767Z,16.70
2018-05-26T04:56:33.788Z,16.20
2018-05-26T04:59:44.335Z,17.10
2018-05-26T05:02:55.897Z,15.40
2018-05-26T05:06:03.647Z,16.33
2018-05-26T05:09:09.531Z,14.70
2018-05-26T05:12:16.249Z,14.73
2018-05-26T05:15:22.319Z,13.57
2018-05-26T05:18:28.381Z,13.50
2018-05-26T05:21:34.202Z,11.70
2018-05-26T05:24:40.308Z,10.90
2018-05-26T05:27:46.559Z,9.03
2018-05-26T05:30:51.491Z,8.10
2018-05-26T05:33:58.518Z,8.43
2018-05-26T05:37:05.536Z,10.00
2018-05-26T05:40:12.222Z,9.13
2018-05-26T05:43:18.506Z,8.83
2018-05-26T05:46:26.193Z,9.27
2018-05-26T05:49:32.106Z,9.90
2018-05-26T05:52:39.070Z,10.43
2018-05-26T05:55:45.281Z,10.07
2018-05-26T05:58:52.248Z,8.50
2018-05-26T06:01:59.091Z,10.57
2018-05-26T06:05:06.849Z,8.50
2018-05-26T06:08:13.279Z,8.70
2018-05-26T06:11:19.832Z,9.07
2018-05-26T06:14:25.960Z,8.73
2018-05-26T06:17:32.126Z,8.37
2018-05-26T06:20:38.788Z,7.83
2018-05-26T06:23:44.605Z,7.67
2018-05-26T06:26:51.705Z,7.57
2018-05-26T06:29:57.712Z,8.03
2018-05-26T06:33:03.991Z,7.30
2018-05-26T06:36:10.829Z,8.50
2018-05-26T06:39:17.916Z,7.43
2018-05-26T06:42:24.857Z,7.97
2018-05-26T06:45:30.831Z,7.47
2018-05-26T06:48:36.675Z,7.30
2018-05-26T06:51:42.784Z,8.40
2018-05-26T06:54:49.000Z,6.80
2018-05-26T06:57:54.342Z,8.00
2018-05-26T07:01:00.423Z,7.90
2018-05-26T07:04:06.363Z,8.47
2018-05-26T07:07:12.417Z,7.87
2018-05-26T07:10:19.381Z,7.17
2018-05-26T07:13:25.279Z,7.00
2018-05-26T07:16:31.147Z,7.37
2018-05-26T07:19:36.957Z,7.40
2018-05-26T07:22:43.196Z,8.37
2018-05-26T07:25:49.219Z,7.40
2018-05-26T07:28:55.876Z,6.10
2018-05-26T07:32:02.023Z,6.80
2018-05-26T07:35:08.731Z,7.00
2018-05-26T07:38:14.747Z,6.87
2018-05-26T07:41:21.616Z,6.53
2018-05-26T07:44:27.654Z,6.17
2018-05-26T07:47:33.562Z,6.07
2018-05-26T07:50:40.800Z,6.27
2018-05-26T07:53:47.903Z,7.33
2018-05-26T07:56:54.250Z,6.33
2018-05-26T08:00:00.928Z,6.30
2018-05-26T08:03:06.940Z,6.00
2018-05-26T08:06:13.983Z,6.10
2018-05-26T08:09:20.998Z,5.37
2018-05-26T08:12:28.293Z,4.90
2018-05-26T08:15:35.027Z,5.53
2018-05-26T08:18:41.307Z,5.53
2018-05-26T08:21:47.406Z,5.30
2018-05-26T08:24:54.377Z,5.30
2018-05-26T08:28:00.580Z,5.13
2018-05-26T08:31:07.215Z,5.97
2018-05-26T08:34:13.252Z,6.10
2018-05-26T08:37:19.267Z,5.40
2018-05-26T08:40:25.130Z,5.03
2018-05-26T08:43:31.891Z,5.40
2018-05-26T08:46:37.848Z,3.90
2018-05-26T08:49:45.981Z,5.20
2018-05-26T08:52:52.783Z,4.27
2018-05-26T08:55:58.620Z,5.30
2018-05-26T08:59:04.532Z,5.00
2018-05-26T09:02:12.765Z,5.73
2018-05-26T09:05:19.598Z,5.07
2018-05-26T09:08:26.390Z,4.40
2018-05-26T09:11:33.480Z,5.20
2018-05-26T09:14:39.800Z,6.20
2018-05-26T09:17:47.795Z,5.53
2018-05-26T09:20:53.996Z,5.87
2018-05-26T09:24:00.777Z,5.17
2018-05-26T09:27:06.861Z,5.27
2018-05-26T09:30:13.833Z,5.50
2018-05-26T09:33:19.898Z,4.83
2018-05-26T09:36:29.600Z,5.20
2018-05-26T09:39:37.271Z,5.53
2018-05-26T09:42:44.418Z,4.63
2018-05-26T09:45:51.792Z,5.47
2018-05-26T09:48:59.995Z,4.60
2018-05-26T09:52:09.515Z,4.93
2018-05-26T09:55:20.230Z,4.57
2018-05-26T09:58:27.223Z,4.30
2018-05-26T10:01:33.640Z,5.17
2018-05-26T10:04:43.334Z,4.37
2018-05-26T10:07:52.059Z,4.73
2018-05-26T10:10:57.966Z,4.33
2018-05-26T10:14:03.834Z,5.27
2018-05-26T10:17:12.690Z,4.60
2018-05-26T10:20:20.500Z,4.50
2018-05-26T10:23:30.315Z,4.40
2018-05-26T10:26:40.846Z,4.17
2018-05-26T10:29:50.386Z,4.80
2018-05-26T10:32:58.699Z,4.40
2018-05-26T10:36:08.157Z,4.53
2018-05-26T10:39:18.904Z,4.17
2018-05-26T10:42:27.892Z,5.30
2018-05-26T10:45:44.532Z,5.00
2018-05-26T10:48:54.075Z,5.07
2018-05-26T10:52:01.538Z,5.37
2018-05-26T10:55:11.727Z,5.40
2018-05-26T10:58:21.778Z,5.67
2018-05-26T11:01:34.048Z,5.00
2018-05-26T11:04:45.680Z,5.60
2018-05-26T11:07:54.694Z,6.90
2018-05-26T11:11:02.092Z,7.93
2018-05-26T11:14:08.099Z,6.70
2018-05-26T11:17:14.345Z,7.13
2018-05-26T11:20:21.569Z,8.60
2018-05-26T11:23:28.497Z,7.00
2018-05-26T11:26:34.545Z,7.70
2018-05-26T11:29:42.233Z,7.77
2018-05-26T11:32:51.756Z,5.80
2018-05-26T11:35:58.078Z,6.03
2018-05-26T11:39:07.227Z,6.27
2018-05-26T11:42:14.306Z,6.83
2018-05-26T11:45:21.892Z,7.30
2018-05-26T11:48:29.674Z,7.70
2018-05-26T11:51:36.041Z,6.00
2018-05-26T11:54:43.461Z,7.40
2018-05-26T11:57:51.521Z,6.47
2018-05-26T12:00:59.366Z,6.70
2018-05-26T12:04:06.482Z,5.93
2018-05-26T12:07:14.633Z,7.30
2018-05-26T12:10:22.201Z,6.27
2018-05-26T12:13:30.738Z,5.70
2018-05-26T12:16:39.469Z,5.40
2018-05-26T12:19:45.925Z,5.57
2018-05-26T12:22:53.020Z,5.10
2018-05-26T12:25:58.923Z,5.40
2018-05-26T12:29:06.413Z,5.10
2018-05-26T12:32:12.612Z,4.90
2018-05-26T12:35:19.143Z,5.10
2018-05-26T12:38:25.898Z,4.80
2018-05-26T12:41:34.554Z,4.70
2018-05-26T12:44:43.774Z,4.43
2018-05-26T12:47:55.392Z,4.50
2018-05-26T12:51:04.657Z,4.43
2018-05-26T12:54:12.129Z,4.33
2018-05-26T12:57:23.728Z,4.10
2018-05-26T13:00:29.638Z,4.93
2018-05-26T13:03:36.607Z,4.17
2018-05-26T13:06:42.820Z,4.03
2018-05-26T13:09:52.127Z,4.07
2018-05-26T13:12:59.672Z,4.40
2018-05-26T13:16:08.008Z,4.67
2018-05-26T13:19:14.772Z,3.17
2018-05-26T13:22:23.475Z,4.10
2018-05-26T13:25:29.912Z,4.40
2018-05-26T13:28:41.144Z,4.50
2018-05-26T13:31:49.191Z,4.30
2018-05-26T13:34:56.808Z,4.50
2018-05-26T13:38:04.696Z,4.30
2018-05-26T13:41:10.808Z,4.03
2018-05-26T13:44:17.806Z,3.83
2018-05-26T13:47:25.045Z,4.87
2018-05-26T13:50:32.980Z,4.70
2018-05-26T13:53:51.520Z,4.23
2018-05-26T13:57:01.381Z,4.70
2018-05-26T14:00:08.496Z,4.70
2018-05-26T14:03:14.672Z,3.83
2018-05-26T14:06:21.194Z,4.30
2018-05-26T14:09:29.701Z,4.10
2018-05-26T14:12:37.111Z,4.23
2018-05-26T14:15:44.325Z,4.13
2018-05-26T14:18:52.205Z,4.10
2018-05-26T14:21:59.928Z,4.50
2018-05-26T14:25:08.407Z,4.10
2018-05-26T14:28:15.118Z,4.83
2018-05-26T14:31:22.527Z,4.60
2018-05-26T14:34:28.884Z,4.37
2018-05-26T14:37:35.005Z,4.30
2018-05-26T14:40:42.950Z,4.97
2018-05-26T14:43:53.943Z,4.63
2018-05-26T14:47:01.962Z,3.87
2018-05-26T14:50:07.934Z,5.20
2018-05-26T14:53:13.617Z,5.10
2018-05-26T14:56:23.685Z,3.87
2018-05-26T14:59:29.799Z,4.43
2018-05-26T15:02:35.769Z,4.43
2018-05-26T15:05:44.601Z,4.10
2018-05-26T15:08:50.470Z,4.30
2018-05-26T15:11:56.333Z,4.30
2018-05-26T15:15:04.216Z,4.30
2018-05-26T15:18:10.500Z,4.33
2018-05-26T15:21:17.373Z,4.67
2018-05-26T15:24:23.627Z,4.60
2018-05-26T15:27:29.461Z,4.47
2018-05-26T15:30:35.311Z,4.30
2018-05-26T15:33:41.429Z,4.77
2018-05-26T15:36:50.328Z,4.40
2018-05-26T15:39:56.242Z,3.93
2018-05-26T15:43:02.411Z,4.47
2018-05-26T15:46:08.610Z,4.70
2018-05-26T15:49:14.479Z,3.97
2018-05-26T15:52:20.586Z,4.30
2018-05-26T15:55:26.652Z,4.10
2018-05-26T15:58:32.422Z,3.87
2018-05-26T16:01:38.479Z,4.07
2018-05-26T16:04:47.282Z,4.17
2018-05-26T16:07:53.095Z,4.30
2018-05-26T16:10:59.053Z,3.90
2018-05-26T16:14:05.910Z,4.20
2018-05-26T16:17:12.189Z,4.17
2018-05-26T16:20:18.239Z,3.77
2018-05-26T16:23:24.306Z,3.60
2018-05-26T16:26:30.583Z,4.33
2018-05-26T16:29:36.559Z,3.80
2018-05-26T16:32:42.895Z,4.23
2018-05-26T16:35:48.947Z,4.20
2018-05-26T16:38:55.131Z,4.53
2018-05-26T16:42:01.120Z,4.50
2018-05-26T16:45:07.234Z,4.57
2018-05-26T16:48:13.426Z,4.20
2018-05-26T16:51:20.709Z,3.50
2018-05-26T16:54:26.565Z,4.00
2018-05-26T16:57:32.874Z,3.93
2018-05-26T17:00:39.069Z,4.00
2018-05-26T17:03:45.318Z,4.53
2018-05-26T17:06:51.358Z,3.97
2018-05-26T17:09:57.351Z,4.10
2018-05-26T17:13:03.497Z,3.80
2018-05-26T17:16:09.479Z,4.30
2018-05-26T17:19:15.660Z,4.07
2018-05-26T17:22:21.582Z,4.10
2018-05-26T17:25:27.837Z,4.00
2018-05-26T17:28:34.804Z,4.30
2018-05-26T17:31:41.609Z,4.20
2018-05-26T17:34:47.942Z,4.50
2018-05-26T17:37:54.638Z,4.50
2018-05-26T17:41:03.850Z,4.03
2018-05-26T17:44:11.456Z,4.03
2018-05-26T17:47:17.454Z,4.23
2018-05-26T17:50:23.559Z,4.13
2018-05-26T17:53:32.321Z,4.17
2018-05-26T17:56:39.857Z,4.40
2018-05-26T17:59:46.288Z,4.20
2018-05-26T18:02:55.144Z,4.17
2018-05-26T18:06:02.808Z,4.40
2018-05-26T18:09:09.605Z,3.77
2018-05-26T18:12:16.458Z,3.83
2018-05-26T18:15:24.262Z,4.00
2018-05-26T18:18:35.103Z,4.70
2018-05-26T18:21:43.955Z,3.97
2018-05-26T18:24:50.070Z,3.50
2018-05-26T18:27:58.507Z,3.80
2018-05-26T18:31:04.719Z,3.47
2018-05-26T18:34:14.343Z,3.87
2018-05-26T18:37:20.505Z,4.00
2018-05-26T18:40:27.486Z,4.20
2018-05-26T18:43:33.971Z,4.30
2018-05-26T18:46:39.969Z,3.90
2018-05-26T18:49:45.999Z,3.77
2018-05-26T18:52:53.202Z,4.37
2018-05-26T18:55:59.999Z,4.70
2018-05-26T18:59:05.934Z,4.10
2018-05-26T19:02:14.079Z,4.00
2018-05-26T19:05:19.989Z,4.47
2018-05-26T19:08:25.913Z,4.40
2018-05-26T19:11:31.888Z,4.53
2018-05-26T19:14:39.631Z,4.20
2018-05-26T19:17:47.323Z,6.07
2018-05-26T19:20:53.464Z,4.73
2018-05-26T19:23:59.594Z,4.90
2018-05-26T19:27:05.640Z,4.10
2018-05-26T19:30:11.597Z,4.27
2018-05-26T19:33:17.731Z,4.40
2018-05-26T19:36:23.730Z,3.67
2018-05-26T19:39:29.614Z,4.50
2018-05-26T19:42:36.457Z,4.40
2018-05-26T19:45:48.300Z,4.80
2018-05-26T19:48:55.259Z,4.10
2018-05-26T19:52:02.289Z,4.67
2018-05-26T19:55:08.549Z,4.83
2018-05-26T19:58:14.485Z,4.20
2018-05-26T20:01:21.268Z,4.30
2018-05-26T20:04:29.235Z,4.97
2018-05-26T20:07:35.243Z,4.73
2018-05-26T20:10:44.804Z,5.00
2018-05-26T20:13:52.223Z,4.60
2018-05-26T20:17:07.156Z,4.63
2018-05-26T20:20:18.073Z,4.87
2018-05-26T20:23:25.705Z,4.30
2018-05-26T20:26:35.589Z,5.47
2018-05-26T20:29:45.477Z,4.63
2018-05-26T20:32:58.619Z,5.10
2018-05-26T20:36:06.906Z,4.27
2018-05-26T20:39:15.927Z,4.60
2018-05-26T20:42:23.860Z,4.33
2018-05-26T20:45:29.919Z,4.77
2018-05-26T20:48:36.017Z,5.33
2018-05-26T20:51:43.419Z,4.40
2018-05-26T20:54:50.736Z,5.10
2018-05-26T20:57:56.736Z,5.77
2018-05-26T21:01:02.861Z,5.10
2018-05-26T21:04:08.965Z,5.20
2018-05-26T21:07:14.888Z,4.40
2018-05-26T21:10:23.797Z,5.00
2018-05-26T21:13:32.504Z,5.33
2018-05-26T21:16:39.304Z,5.53
2018-05-26T21:19:44.968Z,6.47
2018-05-26T21:22:50.837Z,6.13
2018-05-26T21:25:57.817Z,5.70
2018-05-26T21:29:03.701Z,5.60
2018-05-26T21:32:09.768Z,4.90
2018-05-26T21:35:17.838Z,5.33
2018-05-26T21:38:25.976Z,7.33
2018-05-26T21:41:33.679Z,7.30
2018-05-26T21:44:40.261Z,7.27
2018-05-26T21:47:59.245Z,7.70
2018-05-26T21:51:09.286Z,7.00
2018-05-26T21:54:15.927Z,7.13
2018-05-26T21:57:23.276Z,6.80
2018-05-26T22:00:29.141Z,7.27
2018-05-26T22:03:35.324Z,7.40
2018-05-26T22:06:42.600Z,6.80
2018-05-26T22:09:48.569Z,7.30
2018-05-26T22:12:55.441Z,7.73
2018-05-26T22:16:04.138Z,6.63
2018-05-26T22:19:10.134Z,7.83
2018-05-26T22:22:16.364Z,7.50
2018-05-26T22:25:23.218Z,7.40
2018-05-26T22:28:29.372Z,7.30
2018-05-26T22:31:36.434Z,8.30
2018-05-26T22:34:42.865Z,7.03
2018-05-26T22:37:49.372Z,7.60
2018-05-26T22:40:55.770Z,7.57
2018-05-26T22:44:02.790Z,6.50
2018-05-26T22:47:09.922Z,6.50
2018-05-26T22:50:17.426Z,6.30
2018-05-26T22:53:23.172Z,6.63
2018-05-26T22:56:30.326Z,7.23
2018-05-26T22:59:36.904Z,6.33
2018-05-26T23:02:43.272Z,6.53
2018-05-26T23:05:49.897Z,7.17
2018-05-26T23:08:56.211Z,5.97
2018-05-26T23:12:03.844Z,6.77
2018-05-26T23:15:11.875Z,6.80
2018-05-26T23:18:18.200Z,7.47
2018-05-26T23:21:26.195Z,6.40
2018-05-26T23:24:32.094Z,7.73
2018-05-26T23:27:40.151Z,7.83
2018-05-26T23:30:48.158Z,8.27
2018-05-26T23:33:53.959Z,6.90
2018-05-26T23:37:01.631Z,7.33
2018-05-26T23:40:08.549Z,6.67
2018-05-26T23:43:16.658Z,6.53
2018-05-26T23:46:23.237Z,6.30
2018-05-26T23:49:31.148Z,6.67
2018-05-26T23:52:40.510Z,6.33
2018-05-26T23:55:46.971Z,7.50
2018-05-26T23:58:53.797Z,6.87
